ETND

Diepholz Airport

Diepholz, Germany
METAR ETND 151020Z 23007KT 9999 BKN013 03/01 Q0995 GRN
Observed Flight Rules
Dec-15 @ 10:20 UTC (9 hours ago) Marginal Visual Flight Rules
Wind Visibility Clouds
230° at 7 knots 10,000+ meters
  • Broken at 1,300' AGL
Temperatures Readings
Current 3°C / 37°F
Dewpoint 1°C / 34°F
Humidity 87%
Altimeter 29.38" Hg
Pressure 995 hPa
Elevation 43
METAR ETND 151020Z 23007KT 9999 BKN013 03/01 Q0995 GRN
Observed Flight Rules
Dec-15 @ 10:20 UTC
(9 hours ago)
MVFR
Wind Visibility
230° at 7 knots 10,000+ meters
Clouds
  • Broken at 1,300' AGL
Temperature Dewpoint
3°C / 37°F 1°C / 34°F
Humidity Altimeter Pressure
87% 29.38" Hg 995 hPa